Time;durP1;ratioP1;P1;durP2;ratioP2;P2;SDS_P1;SDS_P2;PMS_P1;PMS_P2;Temp;Humidity;BMP_temperature;BMP_pressure;BME280_temperature;BME280_humidity;BME280_pressure;Samples;Min_cycle;Max_cycle;Signal;HPM_P1;HPM_P2
2022/11/22 00:00:24;;;;;;;;;;;;;;;9.40;72.28;96309.50;5009840;28;19921;-76
2022/11/22 00:02:51;;;;;;;;;;;;;;;9.25;73.62;96312.06;5026492;28;19921;-78
2022/11/22 00:05:18;;;;;;;;;;;;;;;9.02;74.06;96321.84;5025357;28;20452;-77
2022/11/22 00:07:45;;;;;;;;;;;;;;;8.93;76.89;96316.28;5026497;28;19928;-77
2022/11/22 00:10:14;;;;;;;;;;;;;;;8.98;75.99;96314.31;5009888;28;20410;-78
2022/11/22 00:12:41;;;;;;;;;;;;;;;9.20;75.15;96314.88;4993641;28;19921;-78
2022/11/22 00:15:08;;;;;;;;;;;;;;;9.46;75.21;96313.53;5027775;28;20039;-77
2022/11/22 00:17:35;;;;;;;;;;;;;;;9.64;76.61;96309.94;5026202;28;20019;-79
2022/11/22 00:20:03;;;;;;;;;;;;;;;9.75;75.93;96308.44;5026233;28;19921;-78
2022/11/22 00:22:31;;;;;;;;;;;;;;;9.51;76.32;96317.53;5025849;28;20492;-77
2022/11/22 00:24:57;;;;;;;;;;;;;;;9.48;76.13;96315.09;5009847;28;20470;-77
2022/11/22 00:27:24;;;;;;;;;;;;;;;9.48;76.59;96316.88;5025797;28;20008;-77
2022/11/22 00:29:51;;;;;;;;;;;;;;;9.58;75.33;96333.53;5026314;28;20400;-77
2022/11/22 00:32:18;;;;;;;;;;;;;;;9.43;76.00;96332.59;5025906;28;20383;-77
2022/11/22 00:34:45;;;;;;;;;;;;;;;9.56;75.97;96336.19;5025607;28;19990;-77
2022/11/22 00:37:12;;;;;;;;;;;;;;;9.41;77.32;96331.84;5025807;28;20015;-78
2022/11/22 00:39:39;;;;;;;;;;;;;;;9.36;76.92;96336.41;5025545;28;19925;-76
2022/11/22 00:42:06;;;;;;;;;;;;;;;8.91;78.69;96323.28;5025900;28;20434;-77
2022/11/22 00:44:33;;;;;;;;;;;;;;;9.11;77.37;96330.84;5025420;28;19928;-77
2022/11/22 00:47:00;;;;;;;;;;;;;;;8.65;72.92;96324.59;5026012;28;19928;-77
2022/11/22 00:49:27;;;;;;;;;;;;;;;8.54;78.37;96313.13;5025447;28;19921;-77
2022/11/22 00:51:54;;;;;;;;;;;;;;;8.41;73.98;96318.03;5025546;28;19921;-77
2022/11/22 00:54:22;;;;;;;;;;;;;;;8.46;75.40;96315.25;5008814;28;19955;-78
2022/11/22 00:56:50;;;;;;;;;;;;;;;8.63;70.44;96325.59;5025294;28;19921;-78
2022/11/22 00:59:19;;;;;;;;;;;;;;;8.69;69.78;96325.28;5025509;28;20834;-78
2022/11/22 01:01:46;;;;;;;;;;;;;;;9.07;69.27;96339.66;5025097;28;19955;-78
2022/11/22 01:04:14;;;;;;;;;;;;;;;9.10;68.46;96336.94;5009159;28;19928;-76
2022/11/22 01:06:41;;;;;;;;;;;;;;;9.30;67.67;96335.88;5024880;28;19921;-77
2022/11/22 01:09:08;;;;;;;;;;;;;;;9.30;65.80;96334.16;5025221;28;19921;-76
2022/11/22 01:11:35;;;;;;;;;;;;;;;9.05;64.42;96336.31;5025308;28;19931;-77
2022/11/22 01:14:02;;;;;;;;;;;;;;;8.93;64.30;96326.63;5027619;28;20387;-79
2022/11/22 01:16:29;;;;;;;;;;;;;;;8.94;65.44;96320.56;5008430;28;19931;-77
2022/11/22 01:18:56;;;;;;;;;;;;;;;8.76;64.31;96313.72;5024931;28;19921;-77
2022/11/22 01:21:23;;;;;;;;;;;;;;;8.64;63.95;96299.69;5025256;28;19959;-77
2022/11/22 01:23:51;;;;;;;;;;;;;;;8.50;63.80;96302.13;5008407;28;19928;-77
2022/11/22 01:26:17;;;;;;;;;;;;;;;8.56;63.51;96295.81;5024813;28;19968;-77
2022/11/22 01:28:44;;;;;;;;;;;;;;;8.53;62.98;96301.16;5008210;28;19921;-77
2022/11/22 01:31:12;;;;;;;;;;;;;;;8.73;64.36;96306.13;5024651;28;20339;-79
2022/11/22 01:33:39;;;;;;;;;;;;;;;8.74;63.15;96312.94;5024910;28;20028;-78
2022/11/22 01:36:05;;;;;;;;;;;;;;;8.77;60.94;96312.81;5076044;28;19974;-77
2022/11/22 01:38:32;;;;;;;;;;;;;;;8.89;61.78;96332.84;5087513;28;20007;-77
2022/11/22 01:40:59;;;;;;;;;;;;;;;9.11;62.48;96345.53;5085831;28;20026;-77
2022/11/22 01:43:27;;;;;;;;;;;;;;;8.97;67.67;96359.97;5102964;28;20045;-79
2022/11/22 01:45:59;;;;;;;;;;;;;;;9.05;70.86;96358.75;5085777;28;19920;-79
2022/11/22 01:48:26;;;;;;;;;;;;;;;9.01;72.98;96363.22;5087067;28;19926;-78
2022/11/22 01:50:57;;;;;;;;;;;;;;;8.96;74.16;96365.22;5085760;28;19981;-78
2022/11/22 01:53:27;;;;;;;;;;;;;;;9.06;74.60;96368.16;5087319;28;19992;-77
2022/11/22 01:55:56;;;;;;;;;;;;;;;8.90;74.79;96352.59;5087521;28;19954;-80
2022/11/22 01:58:24;;;;;;;;;;;;;;;9.03;74.72;96351.91;5087026;28;19924;-80
2022/11/22 02:00:52;;;;;;;;;;;;;;;8.83;74.83;96351.22;5087522;28;20031;-78
2022/11/22 02:03:20;;;;;;;;;;;;;;;8.73;75.46;96345.69;5087765;28;20019;-79
2022/11/22 02:05:48;;;;;;;;;;;;;;;8.83;76.02;96346.06;5087148;28;20387;-79
2022/11/22 02:08:19;;;;;;;;;;;;;;;8.85;75.48;96350.25;5087201;28;19927;-78
2022/11/22 02:10:48;;;;;;;;;;;;;;;8.81;73.41;96353.91;5091315;28;19920;-78
2022/11/22 02:13:17;;;;;;;;;;;;;;;8.91;66.76;96349.09;5089546;28;19920;-79
2022/11/22 02:16:04;;;;;;;;;;;;;;;8.98;62.76;96353.06;5085823;28;20096;-79
2022/11/22 02:18:33;;;;;;;;;;;;;;;8.78;63.47;96350.59;5087067;28;19970;-80
2022/11/22 02:21:01;;;;;;;;;;;;;;;8.78;63.70;96353.19;5086919;28;20513;-79
2022/11/22 02:23:33;;;;;;;;;;;;;;;8.65;63.50;96352.16;5085432;28;19920;-78
2022/11/22 02:26:01;;;;;;;;;;;;;;;8.55;63.13;96356.91;5086975;28;19924;-78
2022/11/22 02:28:29;;;;;;;;;;;;;;;8.43;62.30;96362.66;5119026;27;19920;-79
2022/11/22 02:30:57;;;;;;;;;;;;;;;8.41;62.10;96361.91;5090965;28;19969;-78
2022/11/22 02:33:24;;;;;;;;;;;;;;;8.47;62.03;96363.38;5090524;28;19927;-77
2022/11/22 02:35:51;;;;;;;;;;;;;;;8.41;61.89;96364.47;5090828;28;20449;-78
2022/11/22 02:38:20;;;;;;;;;;;;;;;8.34;61.61;96367.44;5088827;28;20452;-78
2022/11/22 02:41:07;;;;;;;;;;;;;;;8.28;62.26;96365.16;5090496;28;19954;-78
2022/11/22 02:43:37;;;;;;;;;;;;;;;8.29;63.08;96359.06;5083819;28;19933;-79
2022/11/22 02:46:08;;;;;;;;;;;;;;;8.14;63.67;96366.59;5090314;28;19927;-79
2022/11/22 02:48:42;;;;;;;;;;;;;;;8.06;63.34;96360.13;5089180;28;19920;-79
2022/11/22 02:51:15;;;;;;;;;;;;;;;8.06;62.66;96360.13;5088831;28;19924;-79
2022/11/22 02:53:43;;;;;;;;;;;;;;;7.96;63.46;96356.31;5090009;28;20413;-79
2022/11/22 02:56:10;;;;;;;;;;;;;;;8.12;64.50;96359.81;5090278;28;20318;-80
2022/11/22 02:58:37;;;;;;;;;;;;;;;8.28;63.72;96352.25;5090072;28;19942;-79
2022/11/22 03:01:04;;;;;;;;;;;;;;;8.40;65.19;96351.66;5090430;28;19919;-79
2022/11/22 03:03:32;;;;;;;;;;;;;;;8.45;65.69;96347.13;5090001;28;20355;-81
2022/11/22 03:06:01;;;;;;;;;;;;;;;8.58;65.53;96345.59;5089059;28;19951;-80
2022/11/22 03:08:28;;;;;;;;;;;;;;;8.52;65.42;96354.50;5092186;28;19931;-80
2022/11/22 03:10:58;;;;;;;;;;;;;;;8.59;66.08;96357.63;5090270;28;19920;-78
2022/11/22 03:13:25;;;;;;;;;;;;;;;8.59;66.42;96358.44;5089458;28;19927;-80
2022/11/22 03:15:52;;;;;;;;;;;;;;;8.66;67.60;96359.81;5122459;27;20011;-78
2022/11/22 03:18:19;;;;;;;;;;;;;;;8.47;67.51;96368.53;5090009;28;19924;-78
2022/11/22 03:20:46;;;;;;;;;;;;;;;8.28;69.97;96373.72;5088404;28;20375;-79
2022/11/22 03:23:13;;;;;;;;;;;;;;;8.34;71.46;96377.75;5089948;28;19989;-79
2022/11/22 03:25:42;;;;;;;;;;;;;;;8.29;72.36;96372.81;5088333;28;20018;-79
2022/11/22 03:28:09;;;;;;;;;;;;;;;8.27;71.56;96371.19;5089758;28;19926;-77
2022/11/22 03:30:41;;;;;;;;;;;;;;;8.14;72.62;96378.66;5088272;28;19920;-79
2022/11/22 03:33:10;;;;;;;;;;;;;;;8.15;72.77;96388.91;5089585;28;20319;-77
2022/11/22 03:35:37;;;;;;;;;;;;;;;7.94;73.39;96378.75;5089746;28;19926;-76
2022/11/22 03:38:04;;;;;;;;;;;;;;;7.92;73.96;96385.72;5088943;28;19935;-77
2022/11/22 03:40:32;;;;;;;;;;;;;;;7.91;73.90;96381.47;5089412;28;19960;-77
2022/11/22 03:43:02;;;;;;;;;;;;;;;7.81;74.19;96378.47;5089340;28;19920;-78
2022/11/22 03:45:29;;;;;;;;;;;;;;;7.84;72.93;96380.91;5088075;28;19920;-79
2022/11/22 03:47:56;;;;;;;;;;;;;;;7.83;74.24;96386.16;5089157;28;20406;-81
2022/11/22 03:50:25;;;;;;;;;;;;;;;7.74;73.63;96391.69;5089567;28;19969;-83
2022/11/22 03:52:56;;;;;;;;;;;;;;;7.70;74.57;96391.00;5090027;28;20423;-82
2022/11/22 03:55:38;;;;;;;;;;;;;;;7.65;74.65;96403.25;5089489;28;20270;-80
2022/11/22 03:58:07;;;;;;;;;;;;;;;7.67;76.38;96409.16;5089687;28;19920;-79
2022/11/22 04:00:34;;;;;;;;;;;;;;;7.80;75.01;96400.00;5089576;28;19920;-77
2022/11/22 04:03:01;;;;;;;;;;;;;;;7.91;74.19;96402.91;5088101;28;19924;-79
2022/11/22 04:05:29;;;;;;;;;;;;;;;7.85;73.67;96407.53;5090657;28;19924;-80
2022/11/22 04:07:56;;;;;;;;;;;;;;;7.91;73.64;96415.00;5088135;28;20015;-76
2022/11/22 04:10:23;;;;;;;;;;;;;;;7.73;74.55;96414.06;5087831;28;19920;-78
2022/11/22 04:12:55;;;;;;;;;;;;;;;7.96;73.37;96434.47;5088879;28;19920;-79
2022/11/22 04:15:22;;;;;;;;;;;;;;;7.96;73.75;96431.06;5089205;28;19927;-80
2022/11/22 04:17:49;;;;;;;;;;;;;;;7.85;74.43;96434.13;5104223;28;20014;-79
2022/11/22 04:23:03;;;;;;;;;;;;;;;7.72;75.27;96440.75;5088745;28;20015;-80
2022/11/22 04:25:31;;;;;;;;;;;;;;;7.49;74.73;96438.31;5088488;28;19920;-79
2022/11/22 04:27:58;;;;;;;;;;;;;;;7.29;75.46;96440.94;5088900;28;20012;-80
2022/11/22 04:33:13;;;;;;;;;;;;;;;7.27;76.21;96442.72;5088368;28;20026;-80
2022/11/22 04:35:42;;;;;;;;;;;;;;;7.19;75.57;96444.78;5088355;28;20714;-79
2022/11/22 04:38:09;;;;;;;;;;;;;;;7.35;74.08;96456.13;5087827;28;19919;-79
2022/11/22 04:40:37;;;;;;;;;;;;;;;7.36;74.35;96460.34;5086085;28;19949;-80
2022/11/22 04:45:51;;;;;;;;;;;;;;;6.28;76.93;96461.34;5067895;28;19927;-79
2022/11/22 04:48:19;;;;;;;;;;;;;;;6.62;77.40;96466.00;5066233;28;19920;-79
2022/11/22 04:53:31;;;;;;;;;;;;;;;6.44;78.34;96470.13;5083079;28;19920;-79
2022/11/22 04:55:58;;;;;;;;;;;;;;;6.59;77.68;96479.81;5086519;28;19990;-79
2022/11/22 04:58:25;;;;;;;;;;;;;;;6.75;76.98;96479.22;5088171;28;20403;-80
2022/11/22 05:00:52;;;;;;;;;;;;;;;6.91;76.44;96485.41;5087435;28;19982;-81
2022/11/22 05:03:19;;;;;;;;;;;;;;;7.07;76.10;96491.63;5077232;28;19920;-80
2022/11/22 05:05:48;;;;;;;;;;;;;;;7.03;76.38;96501.22;5079068;28;19963;-80
2022/11/22 05:08:19;;;;;;;;;;;;;;;7.13;76.61;96501.69;5087292;28;19954;-80
2022/11/22 05:10:56;;;;;;;;;;;;;;;7.08;76.15;96503.59;5087560;28;19953;-80
2022/11/22 05:13:25;;;;;;;;;;;;;;;7.03;76.73;96513.25;5085463;28;20399;-79
2022/11/22 05:15:54;;;;;;;;;;;;;;;7.16;75.78;96519.56;5088091;28;19950;-78
2022/11/22 05:18:23;;;;;;;;;;;;;;;7.05;74.87;96525.16;5080764;28;20478;-78
2022/11/22 05:20:50;;;;;;;;;;;;;;;6.79;76.12;96530.50;5071180;28;19985;-77
2022/11/22 05:26:05;;;;;;;;;;;;;;;6.93;77.81;96545.38;5067062;28;19967;-79
2022/11/22 05:28:34;;;;;;;;;;;;;;;7.14;76.02;96539.41;5067899;28;19927;-76
2022/11/22 05:31:12;;;;;;;;;;;;;;;6.90;76.21;96553.25;5066987;28;19970;-77
2022/11/22 05:33:41;;;;;;;;;;;;;;;6.34;78.43;96563.97;5067182;28;19924;-77
2022/11/22 05:36:11;;;;;;;7.80;5.40;;;;;;;5.71;79.73;96555.91;5066807;28;20174;-77
2022/11/22 05:38:38;;;;;;;10.33;6.00;;;;;;;5.35;81.43;96558.03;5066205;28;20263;-77
2022/11/22 05:41:11;;;;;;;6.80;5.10;;;;;;;5.11;82.62;96545.97;5099085;28;20197;-77
2022/11/22 05:43:39;;;;;;;;;;;;;;;5.45;81.88;96561.97;5099693;28;20040;-77
2022/11/22 05:46:08;;;;;;;;;;;;;;;5.54;81.59;96568.50;5068434;28;19964;-77
2022/11/22 05:48:40;;;;;;;;;;;;;;;5.41;81.60;96575.78;5048531;28;19921;-77
2022/11/22 05:51:09;;;;;;;;;;;;;;;5.56;82.92;96574.44;5066181;28;19957;-78
2022/11/22 05:53:36;;;;;;;;;;;;;;;5.63;81.79;96575.91;5066906;28;19920;-78
2022/11/22 05:56:05;;;;;;;;;;;;;;;5.67;82.30;96562.91;5070752;28;20379;-79
2022/11/22 05:58:32;;;;;;;;;;;;;;;5.95;81.52;96573.09;5053248;28;19930;-78
2022/11/22 06:01:26;;;;;;;;;;;;;;;5.97;80.86;96565.34;5068293;28;19932;-79
2022/11/22 06:03:54;;;;;;;;;;;;;;;6.28;81.10;96565.91;5051009;28;19927;-79
2022/11/22 06:06:21;;;;;;;;;;;;;;;6.62;80.44;96565.47;5071435;28;19921;-80
2022/11/22 06:08:50;;;;;;;;;;;;;;;6.97;77.39;96570.13;5072821;28;19925;-77
2022/11/22 06:11:18;;;;;;;;;;;;;;;7.21;77.22;96574.31;5070575;28;19924;-77
2022/11/22 06:13:48;;;;;;;;;;;;;;;7.38;76.20;96579.59;5086710;28;19960;-77
2022/11/22 06:16:15;;;;;;;;;;;;;;;7.47;76.74;96581.81;5069425;28;20383;-77
2022/11/22 06:18:44;;;;;;;9.53;7.00;;;;;;;7.74;75.48;96588.41;5068486;28;20110;-76
2022/11/22 06:21:15;;;;;;;10.40;8.00;;;;;;;7.89;74.92;96586.94;5085979;28;20215;-77
2022/11/22 06:23:48;;;;;;;;;;;;;;;8.00;74.34;96585.56;5103078;28;20274;-79
2022/11/22 06:26:26;;;;;;;;;;;;;;;8.07;74.32;96581.81;5069723;28;19927;-77
2022/11/22 06:28:53;;;;;;;;;;;;;;;8.28;72.06;96589.56;5070619;28;19970;-78
2022/11/22 06:31:22;;;;;;;;;;;;;;;7.93;73.13;96588.47;5085992;28;19920;-79
2022/11/22 06:33:56;;;;;;;;;;;;;;;7.78;75.20;96591.69;5071098;28;19926;-78
2022/11/22 06:36:24;;;;;;;;;;;;;;;8.08;73.52;96608.44;5070369;28;19943;-77
2022/11/22 06:38:51;;;;;;;;;;;;;;;8.27;73.59;96608.50;5071197;28;19921;-77
2022/11/22 06:41:21;;;;;;;11.70;8.47;;;;;;;8.55;72.59;96590.91;5068562;28;20139;-79
2022/11/22 06:43:51;;;;;;;11.97;8.30;;;;;;;8.67;71.80;96598.09;5101946;28;20197;-78
2022/11/22 06:46:25;;;;;;;10.60;7.73;;;;;;;8.84;71.60;96611.09;5070226;28;20212;-78
2022/11/22 06:48:52;;;;;;;10.10;6.00;;;;;;;8.57;70.58;96607.97;5102268;28;20278;-79
2022/11/22 06:51:23;;;;;;;10.23;6.30;;;;;;;8.59;71.43;96610.53;5068935;28;20201;-79
2022/11/22 06:53:54;;;;;;;7.60;5.43;;;;;;;8.64;70.45;96629.19;5068363;28;20225;-80
2022/11/22 06:56:51;;;;;;;6.33;4.87;;;;;;;8.65;69.37;96636.06;5069656;28;20584;-78
2022/11/22 06:59:18;;;;;;;8.07;5.00;;;;;;;8.58;70.14;96639.78;5039937;28;20197;-77
2022/11/22 07:01:46;;;;;;;7.93;5.00;;;;;;;8.43;69.43;96609.53;5068715;28;20635;-78
2022/11/22 07:04:15;;;;;;;6.77;4.57;;;;;;;8.40;69.58;96636.28;5070166;28;20708;-78
2022/11/22 07:06:47;;;;;;;10.07;4.87;;;;;;;8.34;69.42;96615.09;5067465;28;20216;-77
2022/11/22 07:09:15;;;;;;;6.87;4.40;;;;;;;8.36;70.02;96608.13;5069885;28;20580;-78
2022/11/22 07:11:45;;;;;;;6.80;5.13;;;;;;;8.18;70.13;96625.22;5069613;28;20265;-79
2022/11/22 07:14:13;;;;;;;6.37;4.80;;;;;;;8.16;69.15;96637.34;5068902;28;20248;-77
2022/11/22 07:16:42;;;;;;;9.53;5.60;;;;;;;8.10;69.75;96638.41;5067005;28;20322;-79
2022/11/22 07:19:13;;;;;;;8.00;5.70;;;;;;;8.35;70.29;96645.13;5067689;28;20630;-82
2022/11/22 07:21:43;;;;;;;7.33;5.47;;;;;;;8.02;70.35;96640.47;5069572;28;20299;-83
2022/11/22 07:24:29;;;;;;;10.20;5.43;;;;;;;7.95;71.50;96649.38;5069591;28;20275;-80
2022/11/22 07:27:00;;;;;;;6.33;4.67;;;;;;;7.89;72.60;96643.66;5083651;28;20206;-79
2022/11/22 07:29:27;;;;;;;;;;;;;;;8.25;71.49;96649.84;5051150;28;20593;-80
2022/11/22 07:31:58;;;;;;;5.73;4.67;;;;;;;8.57;69.70;96651.03;5066824;28;20827;-81
2022/11/22 07:34:27;;;;;;;4.67;4.07;;;;;;;8.71;69.88;96646.94;5084138;28;20302;-81
2022/11/22 07:36:56;;;;;;;5.13;3.77;;;;;;;8.98;69.28;96653.41;5083544;28;20281;-81
2022/11/22 07:39:55;;;;;;;6.97;5.07;;;;;;;8.83;69.98;96635.22;5053308;28;20228;-79
2022/11/22 07:42:25;;;;;;;5.23;3.80;;;;;;;8.03;72.69;96590.59;5067793;28;20205;-78
2022/11/22 07:44:55;;;;;;;5.40;4.10;;;;;;;8.17;73.51;96634.69;5069293;28;20193;-79
2022/11/22 07:47:25;;;;;;;4.90;3.83;;;;;;;8.07;74.05;96633.41;5067147;28;20193;-78
2022/11/22 07:49:53;;;;;;;5.80;3.83;;;;;;;8.06;74.90;96594.75;5066448;28;20274;-79
2022/11/22 07:52:20;;;;;;;6.03;4.40;;;;;;;8.36;73.26;96629.59;5068228;28;20285;-79
2022/11/22 07:54:48;;;;;;;9.43;5.60;;;;;;;8.80;73.75;96627.59;5066432;28;20243;-79
2022/11/22 07:57:21;;;;;;;6.10;4.20;;;;;;;9.17;71.47;96634.53;5070004;28;20189;-80
2022/11/22 07:59:50;;;;;;;5.13;4.40;;;;;;;9.49;70.68;96611.41;5066324;28;20268;-79
2022/11/22 08:02:17;;;;;;;4.83;4.23;;;;;;;9.42;68.97;96614.34;5082891;28;20204;-79
2022/11/22 08:04:46;;;;;;;5.27;3.87;;;;;;;9.46;69.33;96601.19;5068421;28;20605;-81
2022/11/22 08:07:13;;;;;;;7.43;4.73;;;;;;;9.77;68.38;96616.06;5067485;28;20284;-79
2022/11/22 08:09:40;;;;;;;6.83;5.20;;;;;;;9.97;68.30;96618.50;5066704;28;20454;-79
2022/11/22 08:12:08;;;;;;;6.53;4.53;;;;;;;10.14;66.62;96607.34;5082313;28;20189;-80
2022/11/22 08:14:37;;;;;;;6.73;4.47;;;;;;;10.23;65.78;96631.00;5066619;28;20303;-79
2022/11/22 08:17:08;;;;;;;6.40;5.00;;;;;;;10.33;66.98;96629.59;5067393;28;20067;-79
2022/11/22 08:19:38;;;;;;;6.37;5.00;;;;;;;10.26;64.08;96596.34;5067393;28;20635;-78
2022/11/22 08:22:05;;;;;;;6.47;4.93;;;;;;;10.60;64.16;96619.56;5067671;28;20193;-80
2022/11/22 08:24:34;;;;;;;9.07;5.70;;;;;;;10.71;63.13;96621.59;5065618;28;20246;-79
2022/11/22 08:27:02;;;;;;;7.83;4.93;;;;;;;10.68;62.78;96632.94;5048848;28;20189;-78
2022/11/22 08:29:30;;;;;;;8.20;5.93;;;;;;;10.73;63.22;96633.56;5066699;28;20194;-79
2022/11/22 08:31:59;;;;;;;7.03;5.90;;;;;;;10.67;62.79;96641.66;5067200;28;20192;-78
2022/11/22 08:34:26;;;;;;;7.60;5.37;;;;;;;10.82;62.32;96638.22;5066958;28;20260;-80
2022/11/22 08:36:53;;;;;;;7.73;6.13;;;;;;;10.75;60.27;96613.59;5067094;28;20278;-78
2022/11/22 08:39:23;;;;;;;8.97;6.03;;;;;;;10.59;60.91;96592.00;5065340;28;20229;-79
2022/11/22 08:41:51;;;;;;;7.87;5.57;;;;;;;10.95;60.39;96626.28;5066728;28;20194;-78
2022/11/22 08:44:20;;;;;;;7.70;5.13;;;;;;;10.83;59.34;96626.13;5067531;28;20264;-80
2022/11/22 08:46:47;;;;;;;8.17;4.80;;;;;;;10.93;58.77;96643.69;5066567;28;20276;-81
2022/11/22 08:49:15;;;;;;;10.60;7.27;;;;;;;11.28;58.53;96641.78;5065479;28;20286;-80
2022/11/22 08:51:45;;;;;;;10.63;5.43;;;;;;;11.02;58.29;96632.84;5066620;28;20656;-78
2022/11/22 08:54:14;;;;;;;7.83;5.37;;;;;;;11.06;58.67;96638.69;5069525;28;20257;-78
2022/11/22 08:56:42;;;;;;;10.43;6.33;;;;;;;11.34;58.37;96647.47;5066891;28;20196;-79
2022/11/22 08:59:10;;;;;;;13.23;6.20;;;;;;;11.32;58.89;96649.31;5065933;28;20219;-79
2022/11/22 09:01:39;;;;;;;11.20;6.37;;;;;;;11.52;58.42;96652.56;5065016;28;20193;-82
2022/11/22 09:04:09;;;;;;;9.43;5.87;;;;;;;11.34;58.39;96602.53;5066657;28;20200;-81
2022/11/22 09:06:38;;;;;;;11.00;5.00;;;;;;;11.60;57.90;96642.59;5098515;28;20199;-82
2022/11/22 09:09:26;;;;;;;7.67;5.20;;;;;;;11.73;56.55;96628.03;5065713;28;20213;-80
2022/11/22 09:12:04;;;;;;;6.03;4.60;;;;;;;11.62;53.81;96599.25;5083587;28;20193;-80
2022/11/22 09:14:35;;;;;;;11.23;6.80;;;;;;;11.63;53.11;96613.88;5067293;28;20217;-81
2022/11/22 09:17:05;;;;;;;6.20;3.87;;;;;;;11.20;54.45;96605.91;5098351;28;20190;-80
2022/11/22 09:19:34;;;;;;;7.43;5.17;;;;;;;11.18;54.51;96581.84;5065308;28;20195;-81
2022/11/22 09:22:16;;;;;;;8.07;4.40;;;;;;;10.84;55.22;96571.63;5070225;28;20181;-80
2022/11/22 09:28:04;;;;;;;5.10;3.83;;;;;;;11.20;52.63;96568.78;5068114;28;20217;-79
2022/11/22 09:30:35;;;;;;;3.87;3.10;;;;;;;11.34;51.64;96569.69;5082789;28;20274;-80
2022/11/22 09:33:13;;;;;;;7.00;3.77;;;;;;;11.57;50.10;96551.97;5049650;28;20198;-81
2022/11/22 09:35:41;;;;;;;3.40;2.50;;;;;;;11.52;50.13;96551.44;5066726;28;20255;-81
2022/11/22 09:38:15;;;;;;;4.37;3.23;;;;;;;11.73;48.47;96513.88;5096680;28;20797;-79
2022/11/22 09:40:47;;;;;;;4.23;3.13;;;;;;;12.13;46.38;96527.03;5048026;28;20627;-79
2022/11/22 09:43:41;;;;;;;2.10;1.90;;;;;;;12.07;46.18;96540.38;5064991;28;20333;-79
2022/11/22 09:46:49;;;;;;;12.57;2.70;;;;;;;12.35;45.40;96542.13;5102371;28;20311;-79
2022/11/22 09:49:42;;;;;;;4.10;3.10;;;;;;;12.06;48.83;96530.06;5068182;28;20224;-78
2022/11/22 09:52:29;;;;;;;4.57;2.93;;;;;;;12.02;49.06;96534.59;5069057;28;20569;-77
2022/11/22 09:55:02;;;;;;;2.47;2.13;;;;;;;12.19;46.80;96533.59;5067587;28;20341;-77
2022/11/22 09:57:47;;;;;;;4.27;3.30;;;;;;;12.17;46.96;96522.47;5081518;28;20198;-78
2022/11/22 10:00:18;;;;;;;7.60;4.70;;;;;;;12.03;47.72;96520.72;5066146;28;20198;-78
2022/11/22 10:03:00;;;;;;;18.67;6.63;;;;;;;12.26;49.26;96516.75;5066193;28;20607;-79
2022/11/22 10:05:37;;;;;;;10.70;5.30;;;;;;;12.46;49.01;96484.34;5065819;28;20280;-78
2022/11/22 10:08:46;;;;;;;5.73;3.13;;;;;;;12.51;48.31;96506.50;5066470;28;20247;-77
2022/11/22 10:11:59;;;;;;;5.40;3.80;;;;;;;12.70;47.50;96512.22;5066085;28;20684;-81
2022/11/22 10:14:47;;;;;;;7.53;3.60;;;;;;;13.05;47.53;96523.88;5047406;28;20208;-80
2022/11/22 10:17:34;;;;;;;12.17;4.20;;;;;;;13.10;48.19;96514.94;5066454;28;20213;-80
2022/11/22 10:20:10;;;;;;;;;;;;;;;12.81;48.56;96525.38;5064845;28;20099;-78
2022/11/22 10:22:37;;;;;;;;;;;;;;;12.77;48.75;96534.31;5064297;28;20241;-81
2022/11/22 10:25:16;;;;;;;;;;;;;;;12.70;48.98;96533.00;5066147;28;19966;-79
2022/11/22 10:27:46;;;;;;;;;;;;;;;12.81;48.11;96520.19;5067160;28;20405;-79
2022/11/22 10:30:33;;;;;;;;;;;;;;;12.69;48.85;96526.16;5067316;28;20007;-79
2022/11/22 10:33:24;;;;;;;;;;;;;;;12.86;49.06;96535.47;5066348;28;19921;-79
2022/11/22 10:35:52;;;;;;;;;;;;;;;12.57;48.69;96532.09;5065728;28;19969;-78
2022/11/22 10:38:25;;;;;;;;;;;;;;;12.71;48.06;96524.31;5066718;28;19936;-79
2022/11/22 10:40:53;;;;;;;;;;;;;;;12.86;47.35;96532.88;5098165;28;20384;-80
2022/11/22 10:43:33;;;;;;;;;;;;;;;12.82;47.65;96529.63;5048752;28;19920;-80
2022/11/22 10:46:08;;;;;;;;;;;;;;;12.92;48.45;96528.13;5064644;28;20001;-79
2022/11/22 10:48:41;;;;;;;;;;;;;;;13.05;48.50;96528.22;5066401;28;19920;-79
2022/11/22 10:51:15;;;;;;;;;;;;;;;12.99;48.30;96513.81;5070313;28;19939;-81
2022/11/22 10:53:52;;;;;;;;;;;;;;;13.08;47.29;96522.84;5070448;28;19943;-79
2022/11/22 10:56:32;;;;;;;;;;;;;;;12.83;47.09;96528.72;5070616;28;20490;-81
2022/11/22 10:59:16;;;;;;;;;;;;;;;12.63;48.28;96534.31;5102253;28;20399;-79
2022/11/22 11:01:43;;;;;;;;;;;;;;;12.27;49.35;96527.03;5101759;28;20314;-80
2022/11/22 11:04:11;;;;;;;;;;;;;;;12.41;49.64;96517.53;5068066;28;19920;-79
2022/11/22 11:06:40;;;;;;;;;;;;;;;12.54;49.80;96506.31;5067988;28;20481;-82
2022/11/22 11:09:40;;;;;;;;;;;;;;;12.49;50.07;96508.34;5095560;28;20403;-80
2022/11/22 11:12:40;;;;;;;;;;;;;;;12.57;51.23;96500.09;5069059;28;20305;-80
2022/11/22 11:15:23;;;;;;;;;;;;;;;12.42;50.96;96512.28;5067551;28;19920;-80
2022/11/22 11:17:56;;;;;;;;;;;;;;;12.76;50.03;96504.03;5069632;28;19924;-79
2022/11/22 11:20:30;;;;;;;;;;;;;;;13.04;50.04;96506.59;5067815;28;19928;-79
2022/11/22 11:22:58;;;;;;;;;;;;;;;13.34;50.30;96508.97;5069046;28;19932;-80
2022/11/22 11:25:45;;;;;;;;;;;;;;;13.33;50.62;96499.53;5067925;28;19920;-80
2022/11/22 11:28:18;;;;;;;;;;;;;;;13.21;49.46;96513.31;5069361;28;19920;-82
2022/11/22 11:30:51;;;;;;;;;;;;;;;13.19;49.97;96503.97;5101982;28;19920;-79
2022/11/22 11:33:25;;;;;;;;;;;;;;;13.22;50.10;96488.13;5068471;28;19927;-81
2022/11/22 11:36:01;;;;;;;;;;;;;;;13.32;51.34;96499.59;5100053;28;19984;-79
2022/11/22 11:38:35;;;;;;;;;;;;;;;13.64;50.89;96495.75;5068568;28;19927;-81
2022/11/22 11:41:21;;;;;;;;;;;;;;;13.30;51.62;96497.13;5067574;28;19920;-80
2022/11/22 11:43:53;;;;;;;;;;;;;;;12.98;52.18;96496.53;5069356;28;20291;-83
2022/11/22 11:46:25;;;;;;;;;;;;;;;12.69;52.85;96494.97;5099943;28;19920;-79
2022/11/22 11:48:54;;;;;;;;;;;;;;;12.41;54.36;96488.97;5050655;28;20062;-79
2022/11/22 11:51:30;;;;;;;;;;;;;;;12.31;55.19;96488.72;5069994;28;19998;-79
2022/11/22 11:54:00;;;;;;;;;;;;;;;12.58;54.82;96481.81;5068362;28;20059;-80
2022/11/22 11:56:37;;;;;;;;;;;;;;;12.59;54.50;96488.66;5067567;28;20394;-79
2022/11/22 11:59:06;;;;;;;;;;;;;;;12.50;55.37;96485.81;5068199;28;19974;-81
2022/11/22 12:01:52;;;;;;;;;;;;;;;12.38;55.84;96466.66;5066958;28;20349;-82
2022/11/22 12:04:43;;;;;;;;;;;;;;;12.21;56.12;96466.84;5069061;28;19921;-80
2022/11/22 12:07:32;;;;;;;;;;;;;;;12.39;56.50;96470.91;5073092;28;19927;-80
2022/11/22 12:10:00;;;;;;;;;;;;;;;12.49;55.68;96471.19;5066491;28;20003;-79
2022/11/22 12:12:29;;;;;;;;;;;;;;;12.68;55.23;96477.72;5082659;28;19927;-79
2022/11/22 12:15:27;;;;;;;;;;;;;;;12.91;55.44;96471.06;5068512;28;20407;-78
2022/11/22 12:18:18;;;;;;;;;;;;;;;12.93;53.94;96475.22;5064112;28;20023;-78
2022/11/22 12:20:55;;;;;;;;;;;;;;;12.81;55.15;96472.56;5083180;28;20383;-79
2022/11/22 12:23:25;;;;;;;;;;;;;;;12.70;54.71;96470.66;5068308;28;19920;-79
2022/11/22 12:25:55;;;;;;;;;;;;;;;12.86;54.15;96491.28;5067655;28;19920;-78
2022/11/22 12:28:23;;;;;;;;;;;;;;;12.89;54.35;96472.91;5067557;28;19977;-80
2022/11/22 12:30:58;;;;;;;;;;;;;;;12.74;53.41;96472.13;5067522;28;20335;-79
2022/11/22 12:33:42;;;;;;;;;;;;;;;12.52;54.94;96477.00;5066089;28;19920;-79
2022/11/22 12:36:20;;;;;;;;;;;;;;;12.65;55.01;96464.91;5066939;28;19927;-80
2022/11/22 12:38:56;;;;;;;;;;;;;;;12.66;54.49;96471.78;5082181;28;19921;-83
2022/11/22 12:41:41;;;;;;;;;;;;;;;12.77;54.03;96469.34;5064364;28;20308;-80
2022/11/22 12:44:19;;;;;;;;;;;;;;;12.72;55.00;96478.34;5067790;28;19935;-83
2022/11/22 12:47:03;;;;;;;;;;;;;;;12.69;54.84;96489.78;5068621;28;19927;-82
2022/11/22 12:50:05;;;;;;;;;;;;;;;12.82;54.56;96480.28;5069187;28;19924;-80
2022/11/22 12:52:40;;;;;;;;;;;;;;;12.56;55.78;96472.44;5069316;28;19920;-79
2022/11/22 12:55:24;;;;;;;;;;;;;;;12.48;56.16;96459.94;5067661;28;20027;-79
2022/11/22 12:58:07;;;;;;;;;;;;;;;12.52;55.72;96456.22;5067880;28;20485;-79
2022/11/22 13:00:38;;;;;;;;;;;;;;;12.51;56.18;96454.56;5066902;28;20012;-80
2022/11/22 13:03:11;;;;;;;;;;;;;;;12.53;56.65;96459.66;5068054;28;19932;-83
2022/11/22 13:05:46;;;;;;;;;;;;;;;12.58;55.88;96457.59;5067913;28;20387;-81
2022/11/22 13:08:27;;;;;;;;;;;;;;;12.77;55.67;96445.13;5065683;28;19921;-79
2022/11/22 13:11:12;;;;;;;;;;;;;;;12.83;55.20;96442.97;5067412;28;19980;-78